Time;durP1;ratioP1;P1;durP2;ratioP2;P2;SDS_P1;SDS_P2;PMS_P1;PMS_P2;Temp;Humidity;BMP_temperature;BMP_pressure;BME280_temperature;BME280_humidity;BME280_pressure;Samples;Min_cycle;Max_cycle;Signal;HPM_P1;HPM_P2
2021/06/10 00:17:10;;;;;;;3.00;1.65;;;17.30;99.90;;;;;;5061393;23;19927;-96
2021/06/10 00:24:53;;;;;;;1.35;1.25;;;17.00;99.90;;;;;;4902553;29;20053;-95
2021/06/10 00:27:21;;;;;;;4.15;1.50;;;17.00;99.90;;;;;;4901318;29;20044;-95
2021/06/10 00:29:51;;;;;;;2.35;1.40;;;16.90;99.90;;;;;;4883350;29;20029;-95
2021/06/10 00:32:18;;;;;;;6.47;1.20;;;16.80;99.90;;;;;;4900298;29;20039;-94
2021/06/10 00:34:45;;;;;;;2.22;1.55;;;16.80;99.90;;;;;;4883359;29;20044;-95
2021/06/10 01:16:27;;;;;;;1.30;1.20;;;16.90;99.90;;;;;;4911836;23;20048;-96
2021/06/10 02:04:42;;;;;;;0.50;0.50;;;16.90;99.90;;;;;;4847485;29;20076;-95
2021/06/10 02:07:12;;;;;;;1.25;0.88;;;16.90;99.90;;;;;;4878867;23;20044;-96
2021/06/10 02:09:43;;;;;;;2.10;1.27;;;16.90;99.90;;;;;;4888502;29;20029;-96
2021/06/10 02:12:14;;;;;;;1.35;1.02;;;16.90;99.90;;;;;;4888281;29;20013;-96
2021/06/10 02:14:47;;;;;;;2.30;1.25;;;16.90;99.90;;;;;;4887665;29;20037;-96
2021/06/10 02:17:19;;;;;;;1.92;1.27;;;16.80;99.90;;;;;;4874995;29;20023;-95
2021/06/10 02:19:48;;;;;;;1.67;1.10;;;16.90;99.90;;;;;;5103500;23;20033;-95
2021/06/10 02:42:25;;;;;;;0.50;0.50;;;16.70;99.90;;;;;;5813503;23;20304;-94
2021/06/10 02:45:01;;;;;;;0.68;0.60;;;16.70;99.90;;;;;;5463595;23;20061;-95
2021/06/10 02:47:54;;;;;;;1.63;0.90;;;16.70;99.90;;;;;;4902459;29;20054;-96
2021/06/10 02:50:22;;;;;;;3.17;0.55;;;16.70;99.90;;;;;;4888977;29;20032;-95
2021/06/10 02:52:50;;;;;;;1.42;0.52;;;16.60;99.90;;;;;;4872594;29;20045;-96
2021/06/10 02:55:21;;;;;;;1.02;0.60;;;16.60;99.90;;;;;;4887328;29;20018;-96
2021/06/10 02:57:57;;;;;;;0.60;0.60;;;16.60;99.90;;;;;;4887091;29;20047;-95
2021/06/10 03:09:06;;;;;;;0.40;0.40;;;16.50;99.90;;;;;;4861724;29;20125;-96
2021/06/10 03:11:32;;;;;;;0.50;0.40;;;16.50;99.90;;;;;;4863395;29;20030;-94
2021/06/10 03:14:00;;;;;;;1.27;0.50;;;16.50;99.90;;;;;;4859983;29;20042;-94
2021/06/10 03:16:31;;;;;;;0.45;0.45;;;16.50;99.90;;;;;;4843539;29;20038;-96
2021/06/10 03:19:02;;;;;;;0.40;0.40;;;16.50;99.90;;;;;;4849601;29;20033;-96
2021/06/10 03:21:33;;;;;;;0.65;0.35;;;16.50;99.90;;;;;;4864762;29;20033;-96
2021/06/10 03:24:03;;;;;;;1.23;0.50;;;16.50;99.90;;;;;;4878492;29;20041;-96
2021/06/10 03:26:36;;;;;;;0.60;0.40;;;16.60;99.90;;;;;;4858835;29;20056;-96
2021/06/10 03:37:02;;;;;;;0.50;0.50;;;16.50;99.90;;;;;;5458783;23;20060;-96
2021/06/10 03:39:33;;;;;;;0.30;0.30;;;16.50;99.90;;;;;;4940419;29;20043;-96
2021/06/10 03:42:06;;;;;;;4.97;0.55;;;16.60;99.90;;;;;;4940102;29;20031;-96
2021/06/10 03:44:36;;;;;;;0.52;0.40;;;16.50;99.90;;;;;;4937349;29;20071;-96
2021/06/10 03:47:04;;;;;;;0.30;0.30;;;16.50;99.90;;;;;;4921760;29;20043;-95
2021/06/10 03:49:31;;;;;;;1.33;1.20;;;16.50;99.90;;;;;;4923460;29;20040;-96
2021/06/10 03:52:09;;;;;;;;;;;;;;;;;;;;;
2021/06/10 03:54:40;;;;;;;0.55;0.50;;;16.50;99.90;;;;;;4953078;29;20067;-96
2021/06/10 03:57:12;;;;;;;0.40;0.40;;;16.40;99.90;;;;;;4942762;29;20039;-96
2021/06/10 03:59:43;;;;;;;2.60;0.63;;;16.50;99.90;;;;;;4910308;29;20043;-96
2021/06/10 04:02:09;;;;;;;4.15;1.55;;;16.40;99.90;;;;;;4917809;29;20024;-96
2021/06/10 04:04:36;;;;;;;0.40;0.40;;;16.40;99.90;;;;;;4936288;29;20028;-96
2021/06/10 04:07:03;;;;;;;0.50;0.50;;;16.40;99.90;;;;;;4941785;29;20103;-95
2021/06/10 04:09:32;;;;;;;1.48;0.65;;;16.40;99.90;;;;;;4939590;29;20055;-96
2021/06/10 04:12:09;;;;;;;0.50;0.50;;;16.30;99.90;;;;;;4919728;29;20056;-96
2021/06/10 04:14:40;;;;;;;0.60;0.40;;;16.30;99.90;;;;;;4916972;29;20095;-96
2021/06/10 04:17:09;;;;;;;0.60;0.50;;;16.30;99.90;;;;;;4913870;29;20031;-96
2021/06/10 04:19:37;;;;;;;0.70;0.50;;;16.30;99.90;;;;;;4913978;29;20434;-96
2021/06/10 04:22:06;;;;;;;0.47;0.38;;;16.20;99.90;;;;;;4901128;29;20117;-96
2021/06/10 04:24:37;;;;;;;0.50;0.50;;;16.20;99.90;;;;;;4934712;29;20032;-96
2021/06/10 04:27:05;;;;;;;1.38;0.80;;;16.30;99.90;;;;;;4914842;29;20047;-96
2021/06/10 04:29:43;;;;;;;1.60;0.82;;;16.20;99.90;;;;;;4914816;29;20034;-96
2021/06/10 04:32:15;;;;;;;1.23;0.90;;;16.20;99.90;;;;;;4932258;29;20029;-96
2021/06/10 04:34:42;;;;;;;0.60;0.60;;;16.20;99.90;;;;;;4898797;29;20129;-96
2021/06/10 04:37:09;;;;;;;1.00;0.70;;;16.20;99.90;;;;;;4933548;29;20131;-95
2021/06/10 04:39:36;;;;;;;0.77;0.77;;;16.30;99.90;;;;;;4917606;29;20108;-96
2021/06/10 04:42:14;;;;;;;1.77;0.90;;;16.20;99.90;;;;;;4917037;29;20013;-96
2021/06/10 04:44:47;;;;;;;0.80;0.70;;;16.20;99.90;;;;;;4919716;29;20037;-96
2021/06/10 04:47:17;;;;;;;2.83;1.20;;;16.20;99.90;;;;;;4919932;29;20059;-96
2021/06/10 04:49:50;;;;;;;0.98;0.80;;;16.20;99.90;;;;;;4939479;29;20008;-96
2021/06/10 04:52:19;;;;;;;1.23;0.90;;;16.30;99.90;;;;;;4937206;29;20076;-96
2021/06/10 04:54:55;;;;;;;1.50;1.00;;;16.30;99.90;;;;;;4921874;29;20012;-96
2021/06/10 04:57:35;;;;;;;1.10;0.80;;;16.30;99.90;;;;;;4911196;29;20051;-96
2021/06/10 05:00:14;;;;;;;2.42;1.13;;;16.30;99.90;;;;;;4940524;29;20052;-96
2021/06/10 05:02:54;;;;;;;1.27;1.00;;;16.30;99.90;;;;;;4910323;29;20024;-96
2021/06/10 05:05:33;;;;;;;1.42;1.23;;;16.30;99.90;;;;;;4921225;29;20030;-96
2021/06/10 05:08:08;;;;;;;1.17;1.10;;;16.30;99.90;;;;;;4924661;29;20104;-95
2021/06/10 05:10:37;;;;;;;1.15;1.05;;;16.30;99.90;;;;;;4904067;29;20036;-96
2021/06/10 05:13:03;;;;;;;1.60;1.30;;;16.30;99.90;;;;;;4919397;29;20024;-96
2021/06/10 05:15:29;;;;;;;1.10;1.05;;;16.30;99.90;;;;;;4919627;29;20082;-96
2021/06/10 05:18:02;;;;;;;2.00;1.02;;;16.40;99.90;;;;;;4934962;29;20378;-96
2021/06/10 05:20:31;;;;;;;2.58;1.38;;;16.40;99.90;;;;;;4920763;29;20020;-96
2021/06/10 05:23:08;;;;;;;2.13;1.20;;;16.40;99.90;;;;;;4924427;29;20047;-96
2021/06/10 05:25:37;;;;;;;1.42;1.30;;;16.40;99.90;;;;;;4910665;29;20044;-96
2021/06/10 05:28:12;;;;;;;2.67;1.38;;;16.40;99.90;;;;;;4908148;29;20052;-96
2021/06/10 05:30:38;;;;;;;3.38;1.30;;;16.50;99.90;;;;;;4919184;29;20049;-96
2021/06/10 05:33:04;;;;;;;1.20;1.10;;;16.50;99.90;;;;;;4918712;29;20035;-96
2021/06/10 05:35:34;;;;;;;1.75;1.65;;;16.50;99.90;;;;;;4916764;29;20030;-96
2021/06/10 05:38:05;;;;;;;1.80;1.70;;;16.50;99.90;;;;;;4932963;29;20075;-95
2021/06/10 05:40:34;;;;;;;1.80;1.70;;;16.60;99.90;;;;;;4916354;29;20032;-96
2021/06/10 05:43:02;;;;;;;1.63;1.50;;;16.60;99.90;;;;;;4916221;29;20065;-96
2021/06/10 05:45:28;;;;;;;2.28;2.08;;;16.60;99.90;;;;;;4915454;29;20110;-96
2021/06/10 05:47:57;;;;;;;2.40;2.20;;;16.60;99.90;;;;;;4915789;29;20060;-96
2021/06/10 05:50:25;;;;;;;2.17;1.88;;;16.60;99.90;;;;;;4917102;29;20051;-95
2021/06/10 05:52:58;;;;;;;2.17;1.98;;;16.60;99.90;;;;;;4935238;29;20024;-95
2021/06/10 05:55:27;;;;;;;2.20;2.00;;;16.60;99.90;;;;;;4938651;29;20031;-96
2021/06/10 05:57:56;;;;;;;1.98;1.85;;;16.60;99.90;;;;;;4923543;29;20052;-96
2021/06/10 06:13:55;;;;;;;1.50;1.40;;;16.70;99.90;;;;;;5035273;24;20049;-95
2021/06/10 06:16:24;;;;;;;2.67;1.27;;;16.80;99.90;;;;;;4879391;29;20060;-96
2021/06/10 06:19:09;;;;;;;1.83;1.20;;;16.80;99.90;;;;;;4883575;29;20041;-96
2021/06/10 06:21:36;;;;;;;1.15;0.90;;;16.80;99.90;;;;;;4886251;29;20048;-96
2021/06/10 06:24:09;;;;;;;0.98;0.95;;;16.80;99.90;;;;;;4871321;29;20030;-96
2021/06/10 06:26:39;;;;;;;2.30;1.10;;;16.80;99.90;;;;;;4902115;29;20025;-96
2021/06/10 06:29:40;;;;;;;1.13;1.08;;;16.80;99.90;;;;;;4886790;29;20033;-96
2021/06/10 06:32:24;;;;;;;1.10;1.00;;;16.80;99.90;;;;;;4869193;29;20101;-96
2021/06/10 06:34:50;;;;;;;3.15;1.25;;;16.90;99.90;;;;;;4869195;29;20112;-95
2021/06/10 06:37:19;;;;;;;1.20;1.10;;;16.90;99.90;;;;;;4883493;29;20036;-96
2021/06/10 06:39:45;;;;;;;2.10;1.20;;;16.90;99.90;;;;;;4864192;29;20403;-95
2021/06/10 06:44:49;;;;;;;1.70;1.60;;;16.90;99.90;;;;;;5570314;23;20045;-96
2021/06/10 06:47:15;;;;;;;1.10;0.88;;;16.90;99.90;;;;;;4859349;29;20033;-96
2021/06/10 06:49:43;;;;;;;1.02;0.93;;;16.90;99.90;;;;;;4875425;29;20103;-95
2021/06/10 06:52:10;;;;;;;0.82;0.82;;;17.00;99.90;;;;;;4890730;29;20052;-96
2021/06/10 06:54:36;;;;;;;1.55;1.25;;;17.00;99.90;;;;;;4880154;29;20088;-95
2021/06/10 06:57:05;;;;;;;1.52;1.00;;;17.00;99.90;;;;;;4871045;29;20029;-96
2021/06/10 06:59:46;;;;;;;1.25;0.88;;;17.00;99.90;;;;;;4984593;23;20103;-95
2021/06/10 07:02:28;;;;;;;;;;;17.00;99.90;;;;;;4929271;29;20370;-95
2021/06/10 07:04:54;;;;;;;0.80;0.80;;;17.10;99.90;;;;;;4920839;29;19946;-96
2021/06/10 07:07:20;;;;;;;1.20;1.10;;;17.10;99.90;;;;;;4935657;29;20064;-95
2021/06/10 07:09:49;;;;;;;1.20;0.95;;;17.10;99.90;;;;;;4918926;29;20087;-95
2021/06/10 07:12:26;;;;;;;1.35;0.90;;;17.10;99.90;;;;;;4904599;29;20047;-96
2021/06/10 07:14:55;;;;;;;3.38;0.90;;;17.10;99.90;;;;;;4923160;29;20035;-94
2021/06/10 07:17:23;;;;;;;0.70;0.70;;;17.10;99.90;;;;;;4918462;29;20020;-95
2021/06/10 07:19:52;;;;;;;1.00;1.00;;;17.10;99.90;;;;;;4921895;29;20123;-96
2021/06/10 07:22:18;;;;;;;4.75;1.20;;;17.20;99.90;;;;;;4909379;29;20028;-96
2021/06/10 07:24:46;;;;;;;3.05;1.00;;;17.20;99.90;;;;;;4923517;29;20064;-96
2021/06/10 07:27:14;;;;;;;1.65;0.93;;;17.40;99.90;;;;;;4913178;29;20031;-94
2021/06/10 07:29:39;;;;;;;2.35;0.90;;;17.60;99.90;;;;;;4909006;29;20036;-96
2021/06/10 07:32:06;;;;;;;0.82;0.82;;;17.70;99.90;;;;;;4915042;29;20036;-96
2021/06/10 07:34:49;;;;;;;1.17;0.98;;;17.90;99.90;;;;;;4901080;29;20043;-95
2021/06/10 07:39:52;;;;;;;2.03;1.08;;;18.20;99.90;;;;;;4917218;29;20036;-95
2021/06/10 07:42:21;;;;;;;1.73;0.97;;;18.50;99.90;;;;;;4930370;29;20060;-96
2021/06/10 07:44:48;;;;;;;0.93;0.80;;;18.80;99.90;;;;;;4923593;29;20020;-95
2021/06/10 07:47:14;;;;;;;4.35;1.05;;;18.90;99.90;;;;;;4906019;29;20057;-95
2021/06/10 08:12:15;;;;;;;1.90;1.10;;;19.40;99.90;;;;;;5426216;23;20037;-96
2021/06/10 08:14:42;;;;;;;0.93;0.93;;;19.50;99.90;;;;;;4900637;29;20040;-96
2021/06/10 08:39:48;;;;;;;1.33;0.90;;;20.10;99.30;;;;;;1165883;23;20311;-97
2021/06/10 08:42:15;;;;;;;3.00;0.85;;;20.00;98.80;;;;;;4882275;29;20041;-96
2021/06/10 08:44:43;;;;;;;2.67;1.00;;;20.00;98.90;;;;;;4853818;29;20041;-94
2021/06/10 08:47:13;;;;;;;1.33;1.05;;;20.00;98.80;;;;;;4876674;29;20040;-96
2021/06/10 08:49:44;;;;;;;3.03;1.42;;;20.10;98.60;;;;;;4886058;29;20076;-96
2021/06/10 08:52:19;;;;;;;2.00;1.50;;;20.10;98.40;;;;;;4871987;29;20058;-96
2021/06/10 08:54:49;;;;;;;2.08;1.67;;;20.10;98.40;;;;;;4885406;29;20033;-96
2021/06/10 08:57:18;;;;;;;3.53;1.60;;;20.20;98.30;;;;;;4883013;29;20033;-94
2021/06/10 09:00:02;;;;;;;4.80;1.60;;;20.30;97.70;;;;;;4883615;29;20113;-95
2021/06/10 09:02:30;;;;;;;2.50;1.75;;;20.30;97.40;;;;;;4900758;29;20058;-95
2021/06/10 09:05:12;;;;;;;2.55;1.55;;;20.40;97.30;;;;;;4904031;29;20017;-95
2021/06/10 09:07:46;;;;;;;2.47;1.58;;;20.50;97.00;;;;;;4885334;29;20058;-96
2021/06/10 09:10:13;;;;;;;1.38;1.13;;;20.50;96.40;;;;;;4866882;29;20033;-96
2021/06/10 09:13:01;;;;;;;1.83;1.20;;;20.50;96.30;;;;;;4862542;29;20034;-95
2021/06/10 09:15:29;;;;;;;3.17;1.77;;;20.60;96.00;;;;;;4844950;29;20081;-96
2021/06/10 09:18:06;;;;;;;1.38;1.10;;;20.50;95.50;;;;;;4884240;29;20022;-96
2021/06/10 09:20:42;;;;;;;2.65;0.90;;;20.40;95.50;;;;;;4872062;29;20018;-96
2021/06/10 09:35:08;;;;;;;1.10;0.90;;;20.40;95.30;;;;;;5221185;23;20045;-96
2021/06/10 09:37:34;;;;;;;;;;;20.50;94.90;;;;;;4873381;29;20116;-96
2021/06/10 09:40:13;;;;;;;4.07;0.80;;;20.50;94.80;;;;;;4887176;29;19908;-93
2021/06/10 09:42:44;;;;;;;2.78;0.98;;;20.50;94.80;;;;;;4852983;29;20036;-96
2021/06/10 09:45:19;;;;;;;2.03;1.52;;;20.50;94.60;;;;;;4885077;29;20089;-96
2021/06/10 09:47:52;;;;;;;4.07;2.00;;;20.40;94.60;;;;;;4878466;29;20017;-96
2021/06/10 09:50:24;;;;;;;1.83;1.40;;;20.30;94.50;;;;;;4865861;29;20025;-96
2021/06/10 09:53:02;;;;;;;1.00;0.85;;;20.30;94.70;;;;;;4891219;29;20101;-96
2021/06/10 09:55:33;;;;;;;0.73;0.73;;;20.30;94.80;;;;;;4888843;29;20059;-96
2021/06/10 09:58:24;;;;;;;0.95;0.93;;;20.30;94.80;;;;;;4884535;29;20021;-96
2021/06/10 10:00:59;;;;;;;5.07;2.97;;;20.30;94.90;;;;;;4901308;29;20029;-96
2021/06/10 10:03:32;;;;;;;3.55;1.25;;;20.40;94.80;;;;;;4897396;29;20032;-96
2021/06/10 10:06:49;;;;;;;1.33;1.05;;;20.40;94.70;;;;;;4877887;29;20186;-96
2021/06/10 10:43:31;;;;;;;8.80;2.10;;;19.90;95.30;;;;;;1193493;23;20323;-93
2021/06/10 10:46:30;;;;;;;3.00;1.20;;;19.90;95.50;;;;;;4856446;29;20081;-94
2021/06/10 10:49:00;;;;;;;4.07;1.27;;;20.00;95.50;;;;;;4930156;23;20068;-95
2021/06/10 10:51:39;;;;;;;2.80;1.08;;;20.00;95.50;;;;;;4914491;29;20108;-94
2021/06/10 10:54:31;;;;;;;1.15;1.02;;;20.00;95.60;;;;;;4922299;29;20066;-95
2021/06/10 10:56:59;;;;;;;0.90;0.85;;;19.90;95.60;;;;;;4902620;29;20036;-95
2021/06/10 10:59:41;;;;;;;3.20;1.10;;;19.80;95.60;;;;;;4937781;29;20418;-94
2021/06/10 11:02:19;;;;;;;1.95;1.20;;;19.80;95.70;;;;;;4899122;29;20033;-96
2021/06/10 11:04:53;;;;;;;1.73;1.13;;;19.70;96.00;;;;;;4899586;29;20029;-96
2021/06/10 11:07:38;;;;;;;5.40;2.05;;;19.70;96.20;;;;;;4898909;29;20115;-96
2021/06/10 11:10:07;;;;;;;10.57;3.85;;;19.70;96.20;;;;;;4912926;29;20088;-96
2021/06/10 11:12:49;;;;;;;4.88;1.75;;;19.60;96.40;;;;;;4913119;29;20039;-95
2021/06/10 11:15:29;;;;;;;5.75;2.70;;;19.60;96.50;;;;;;5060258;23;20069;-96
2021/06/10 11:18:06;;;;;;;1.85;1.30;;;19.50;96.40;;;;;;4920345;29;20031;-96
2021/06/10 11:20:43;;;;;;;5.60;1.40;;;19.60;96.70;;;;;;4890390;29;20024;-95
2021/06/10 11:23:26;;;;;;;2.70;1.30;;;19.60;96.80;;;;;;4921447;29;20033;-95
2021/06/10 11:25:58;;;;;;;2.03;1.50;;;19.80;96.70;;;;;;5081244;23;20053;-95
2021/06/10 11:28:29;;;;;;;3.75;1.30;;;19.90;96.60;;;;;;4882798;29;20037;-95
2021/06/10 11:31:16;;;;;;;2.58;1.27;;;20.10;96.50;;;;;;4899864;29;20066;-95
2021/06/10 11:33:42;;;;;;;1.88;1.00;;;20.50;96.20;;;;;;4884923;29;20044;-96
2021/06/10 11:36:11;;;;;;;1.13;1.02;;;20.60;95.50;;;;;;4900538;29;20078;-95
2021/06/10 11:38:47;;;;;;;1.58;1.02;;;20.70;95.10;;;;;;4882719;29;20462;-95
2021/06/10 11:41:18;;;;;;;1.73;1.10;;;20.90;94.70;;;;;;4900864;29;20041;-94
2021/06/10 11:43:48;;;;;;;1.20;1.10;;;21.00;94.50;;;;;;4880376;29;20025;-95
2021/06/10 11:46:16;;;;;;;1.70;1.00;;;21.00;94.10;;;;;;4875592;29;20422;-95
2021/06/10 11:49:11;;;;;;;3.10;1.00;;;21.00;93.90;;;;;;4856485;29;20399;-95
2021/06/10 11:51:39;;;;;;;1.27;1.10;;;21.10;93.60;;;;;;4858604;29;20081;-94
2021/06/10 11:54:12;;;;;;;1.20;0.90;;;21.10;93.50;;;;;;4865450;29;20022;-94
2021/06/10 11:56:59;;;;;;;1.63;0.68;;;21.20;93.40;;;;;;4879234;29;20041;-95
2021/06/10 11:59:29;;;;;;;2.10;0.88;;;21.20;93.20;;;;;;4870857;29;20041;-95
2021/06/10 12:02:02;;;;;;;1.20;0.93;;;21.20;93.20;;;;;;4871796;29;20037;-95
2021/06/10 12:04:33;;;;;;;4.07;1.13;;;21.30;93.20;;;;;;4860965;29;20022;-95
2021/06/10 12:07:15;;;;;;;2.13;1.40;;;21.20;92.70;;;;;;4864967;29;20102;-95
2021/06/10 12:09:54;;;;;;;1.10;0.98;;;21.20;92.70;;;;;;4870792;29;20014;-95
2021/06/10 12:12:46;;;;;;;2.50;1.23;;;21.20;93.00;;;;;;4881534;29;20049;-96
2021/06/10 12:15:18;;;;;;;3.95;1.27;;;21.20;93.00;;;;;;4863297;29;20052;-95
2021/06/10 12:18:12;;;;;;;2.92;0.95;;;21.30;92.80;;;;;;4880273;29;20044;-96
2021/06/10 12:26:01;;;;;;;2.05;1.00;;;21.30;92.70;;;;;;5198905;23;20561;-95
2021/06/10 12:28:44;;;;;;;4.22;0.90;;;21.30;92.40;;;;;;4885995;29;20017;-95
2021/06/10 12:31:23;;;;;;;4.32;1.00;;;21.30;92.30;;;;;;4883888;29;20044;-96
2021/06/10 12:33:58;;;;;;;2.92;1.02;;;21.30;92.30;;;;;;4899233;29;20081;-95
2021/06/10 12:36:39;;;;;;;1.45;1.15;;;21.40;92.30;;;;;;4874237;29;20033;-94
2021/06/10 12:39:09;;;;;;;3.75;0.90;;;21.40;91.90;;;;;;4874677;29;20052;-96
2021/06/10 12:41:42;;;;;;;1.58;0.80;;;21.40;91.60;;;;;;4890855;29;20479;-94
2021/06/10 12:44:11;;;;;;;2.50;0.70;;;21.40;91.60;;;;;;4874835;29;20029;-94
2021/06/10 12:46:59;;;;;;;1.50;0.93;;;21.40;91.70;;;;;;4874679;29;20036;-96
2021/06/10 12:49:47;;;;;;;5.32;0.80;;;21.60;91.80;;;;;;4875027;29;20277;-96
2021/06/10 12:52:32;;;;;;;2.13;1.20;;;21.60;91.50;;;;;;4859950;29;20507;-94
2021/06/10 12:55:01;;;;;;;1.50;1.08;;;21.70;91.40;;;;;;4893899;29;20021;-95
2021/06/10 12:57:30;;;;;;;1.00;0.80;;;21.70;91.60;;;;;;4877100;29;20033;-94
2021/06/10 13:00:00;;;;;;;2.10;0.82;;;21.60;91.30;;;;;;4878024;29;20033;-95
2021/06/10 13:02:30;;;;;;;0.70;0.70;;;21.60;91.30;;;;;;4880096;29;20021;-94
2021/06/10 13:05:14;;;;;;;;;;;21.60;91.70;;;;;;4894620;29;20043;-95
2021/06/10 13:07:57;;;;;;;0.95;0.60;;;21.50;91.50;;;;;;4879722;29;19907;-94
2021/06/10 13:10:45;;;;;;;0.70;0.70;;;21.50;91.70;;;;;;4881224;29;20031;-95
2021/06/10 13:13:21;;;;;;;1.65;1.08;;;21.50;91.80;;;;;;4884642;29;20041;-95
2021/06/10 13:16:03;;;;;;;1.65;0.70;;;21.50;91.80;;;;;;4881892;29;20037;-93
2021/06/10 13:18:35;;;;;;;3.20;0.70;;;21.60;92.00;;;;;;4874608;29;20112;-94
2021/06/10 13:21:16;;;;;;;1.60;1.00;;;21.60;92.20;;;;;;4901005;29;20018;-94
2021/06/10 13:24:12;;;;;;;1.27;0.65;;;21.60;92.30;;;;;;4879704;29;20032;-96
2021/06/10 13:26:40;;;;;;;1.00;0.60;;;21.70;92.30;;;;;;4846847;29;20057;-94
2021/06/10 13:29:08;;;;;;;2.60;1.42;;;21.70;92.30;;;;;;4872613;29;20029;-94
2021/06/10 13:31:58;;;;;;;0.80;0.70;;;21.70;92.10;;;;;;4889554;29;20021;-94
2021/06/10 13:34:37;;;;;;;0.55;0.50;;;21.70;92.10;;;;;;4873454;29;20029;-94
2021/06/10 13:37:13;;;;;;;1.10;0.50;;;21.70;92.00;;;;;;4873173;29;20058;-94
2021/06/10 13:40:16;;;;;;;0.82;0.77;;;21.60;92.10;;;;;;4871686;29;20474;-95
2021/06/10 13:43:14;;;;;;;;;;;;;;;;;;;;;
2021/06/10 16:56:53;;;;;;;3.72;1.50;;;22.10;94.10;;;;;;5320416;23;20056;-94
2021/06/10 16:59:19;;;;;;;1.60;1.40;;;22.20;94.20;;;;;;4870149;29;20033;-91
2021/06/10 17:04:16;;;;;;;1.33;1.23;;;22.30;94.40;;;;;;4886142;29;20539;-93
2021/06/10 17:06:48;;;;;;;4.38;1.15;;;22.40;94.40;;;;;;4861855;29;20026;-93
2021/06/10 17:09:16;;;;;;;1.42;1.30;;;22.40;94.40;;;;;;4861018;29;20472;-92
2021/06/10 17:11:44;;;;;;;2.47;1.20;;;22.40;94.30;;;;;;4859020;29;20042;-90
2021/06/10 17:14:11;;;;;;;1.60;0.80;;;22.40;94.30;;;;;;4851773;29;20029;-91
2021/06/10 17:16:38;;;;;;;3.17;1.60;;;22.30;94.20;;;;;;4871620;29;20777;-92
2021/06/10 17:19:07;;;;;;;1.80;1.35;;;22.30;94.20;;;;;;4850356;29;20037;-93
2021/06/10 17:21:34;;;;;;;1.58;1.20;;;22.20;94.20;;;;;;4848475;29;20033;-92
2021/06/10 17:24:00;;;;;;;2.38;1.30;;;22.10;94.50;;;;;;4848940;29;20042;-92
2021/06/10 17:26:26;;;;;;;4.22;1.50;;;22.00;94.70;;;;;;4854791;29;20558;-93
2021/06/10 17:28:52;;;;;;;1.80;1.17;;;22.00;94.90;;;;;;4853654;29;20026;-91
2021/06/10 17:31:18;;;;;;;3.08;1.10;;;22.00;95.10;;;;;;4855966;29;20718;-90
2021/06/10 17:33:44;;;;;;;1.88;1.20;;;21.90;95.30;;;;;;4855507;29;20025;-90
2021/06/10 17:36:10;;;;;;;2.70;1.30;;;21.90;95.50;;;;;;4873317;29;20044;-93
2021/06/10 17:38:36;;;;;;;2.45;1.20;;;22.00;95.60;;;;;;4857948;29;20050;-90
2021/06/10 17:41:02;;;;;;;1.10;1.00;;;22.10;95.40;;;;;;4855248;29;20032;-91
2021/06/10 17:43:28;;;;;;;1.10;1.08;;;22.20;95.30;;;;;;4854191;29;20026;-91
2021/06/10 17:45:53;;;;;;;0.82;0.82;;;22.20;95.10;;;;;;4851358;29;20041;-92
2021/06/10 17:48:19;;;;;;;1.02;1.00;;;22.20;94.90;;;;;;4853319;29;20521;-91
2021/06/10 17:50:45;;;;;;;1.95;1.23;;;22.20;94.50;;;;;;4854576;29;20509;-90
2021/06/10 17:53:11;;;;;;;1.23;1.10;;;22.10;94.50;;;;;;4855112;29;20040;-90
2021/06/10 17:55:36;;;;;;;1.13;0.90;;;22.10;94.60;;;;;;4856669;29;20026;-90
2021/06/10 17:58:03;;;;;;;1.02;0.90;;;22.10;94.70;;;;;;4856382;29;20652;-90
2021/06/10 18:00:29;;;;;;;3.17;1.30;;;22.10;94.70;;;;;;4852412;29;20037;-90
2021/06/10 18:02:55;;;;;;;2.47;0.90;;;22.10;94.80;;;;;;4855473;29;20033;-89
2021/06/10 18:05:21;;;;;;;2.78;1.10;;;22.10;94.80;;;;;;4854938;29;20034;-92
2021/06/10 18:07:49;;;;;;;0.93;0.90;;;22.00;94.90;;;;;;4854683;29;20040;-93
2021/06/10 18:10:17;;;;;;;1.35;1.10;;;22.00;95.00;;;;;;4849665;29;20045;-93
2021/06/10 18:12:43;;;;;;;1.13;1.02;;;22.00;95.10;;;;;;4849230;29;20029;-93
2021/06/10 18:15:11;;;;;;;1.70;1.23;;;22.00;95.10;;;;;;4849502;29;20116;-92
2021/06/10 18:17:40;;;;;;;1.52;1.15;;;22.00;95.50;;;;;;4849206;29;20033;-92
2021/06/10 18:20:08;;;;;;;2.83;1.27;;;21.90;95.30;;;;;;4848066;29;20064;-92
2021/06/10 18:22:34;;;;;;;4.15;1.00;;;21.90;95.40;;;;;;4852315;29;20037;-92
2021/06/10 18:25:00;;;;;;;1.77;1.02;;;21.90;95.40;;;;;;4849744;29;20036;-90
2021/06/10 18:27:26;;;;;;;1.33;1.23;;;21.80;95.20;;;;;;4847897;29;20040;-91
2021/06/10 18:29:52;;;;;;;1.52;1.05;;;21.70;95.20;;;;;;4846557;29;20025;-90
2021/06/10 18:32:18;;;;;;;1.48;0.98;;;21.70;95.20;;;;;;4846682;29;20129;-90
2021/06/10 18:34:44;;;;;;;1.40;1.13;;;21.70;95.30;;;;;;4847190;29;20041;-92
2021/06/10 18:37:10;;;;;;;4.10;1.40;;;21.60;95.40;;;;;;4848619;29;20170;-89
2021/06/10 18:39:36;;;;;;;2.03;0.98;;;21.50;95.50;;;;;;4847044;29;20117;-90
2021/06/10 18:42:02;;;;;;;3.67;0.93;;;21.40;95.60;;;;;;4849610;29;20064;-91
2021/06/10 18:44:29;;;;;;;1.10;0.90;;;21.40;95.90;;;;;;4847554;29;20029;-91
2021/06/10 18:46:58;;;;;;;2.53;1.10;;;21.30;96.00;;;;;;4848278;29;20041;-92
2021/06/10 18:49:26;;;;;;;2.58;1.17;;;21.30;96.10;;;;;;4845297;29;20030;-91
2021/06/10 18:51:52;;;;;;;2.08;1.20;;;21.20;96.40;;;;;;4848714;29;20037;-91
2021/06/10 18:54:19;;;;;;;3.65;1.60;;;21.20;96.50;;;;;;4846832;29;20097;-91
2021/06/10 18:56:44;;;;;;;1.33;1.23;;;21.20;96.60;;;;;;4846790;29;20045;-91
2021/06/10 18:59:13;;;;;;;1.38;1.10;;;21.10;96.70;;;;;;4846402;29;20037;-90
2021/06/10 19:01:41;;;;;;;1.30;1.20;;;21.10;96.90;;;;;;4862485;29;20025;-92
2021/06/10 19:04:07;;;;;;;1.20;1.10;;;21.10;97.00;;;;;;4846004;29;20030;-92
2021/06/10 19:06:33;;;;;;;3.83;1.40;;;21.10;97.20;;;;;;4861364;29;20043;-91
2021/06/10 19:08:58;;;;;;;1.65;1.05;;;21.10;97.30;;;;;;4846677;29;20047;-92
2021/06/10 19:11:24;;;;;;;3.60;1.45;;;21.00;97.40;;;;;;4846652;29;20026;-91
2021/06/10 19:13:51;;;;;;;1.33;1.20;;;20.90;97.60;;;;;;4845992;29;20057;-91
2021/06/10 19:16:17;;;;;;;2.80;1.00;;;20.90;97.90;;;;;;4846177;29;20021;-91
2021/06/10 19:18:42;;;;;;;1.88;1.20;;;20.90;98.00;;;;;;4845808;29;20526;-91
2021/06/10 19:21:08;;;;;;;2.20;1.10;;;20.90;98.20;;;;;;4852938;29;20017;-91
2021/06/10 19:23:38;;;;;;;1.80;1.30;;;20.90;98.30;;;;;;4851508;29;20037;-91
2021/06/10 19:26:09;;;;;;;2.58;1.35;;;20.80;98.40;;;;;;4850420;29;20033;-92
2021/06/10 19:28:40;;;;;;;2.20;1.10;;;20.80;98.60;;;;;;4850555;29;20036;-91
2021/06/10 19:31:08;;;;;;;1.85;1.35;;;20.80;98.70;;;;;;4853443;29;20026;-93
2021/06/10 19:33:34;;;;;;;1.90;1.00;;;20.80;98.70;;;;;;4854740;29;20057;-91
2021/06/10 19:36:01;;;;;;;3.53;0.93;;;20.70;98.80;;;;;;4852299;29;20030;-91
2021/06/10 19:38:28;;;;;;;3.65;1.42;;;20.70;98.80;;;;;;4852494;29;20219;-91
2021/06/10 19:40:55;;;;;;;1.15;1.00;;;20.70;98.90;;;;;;4853523;29;20033;-94
2021/06/10 19:43:24;;;;;;;1.20;1.10;;;20.60;99.10;;;;;;4851774;29;20033;-92
2021/06/10 19:45:50;;;;;;;1.20;1.10;;;20.50;99.20;;;;;;4848265;29;20041;-91
2021/06/10 19:48:21;;;;;;;3.50;1.10;;;20.50;99.40;;;;;;4849193;29;20052;-94
2021/06/10 19:50:51;;;;;;;3.00;1.05;;;20.50;99.50;;;;;;4845329;29;20066;-91
2021/06/10 19:53:17;;;;;;;3.22;1.10;;;20.50;99.70;;;;;;4848475;29;20053;-93
2021/06/10 19:55:48;;;;;;;2.22;1.23;;;20.40;99.90;;;;;;4851111;29;20034;-92
2021/06/10 19:58:16;;;;;;;;;;;20.40;99.90;;;;;;4850326;29;20524;-92
2021/06/10 20:00:41;;;;;;;1.83;1.42;;;20.40;99.90;;;;;;4847977;29;19916;-94
2021/06/10 20:03:07;;;;;;;1.80;1.15;;;20.30;99.90;;;;;;4847044;29;20483;-91
2021/06/10 20:05:33;;;;;;;1.13;1.10;;;20.30;99.90;;;;;;4845998;29;20041;-92
2021/06/10 20:07:59;;;;;;;2.22;1.10;;;20.20;99.90;;;;;;4845470;29;20623;-92
2021/06/10 20:10:25;;;;;;;0.90;0.90;;;20.10;99.90;;;;;;4846197;29;20021;-92
2021/06/10 20:12:52;;;;;;;1.42;1.17;;;20.10;99.90;;;;;;4863190;29;20085;-92
2021/06/10 20:15:18;;;;;;;1.17;1.08;;;20.00;99.90;;;;;;4863682;29;20491;-93
2021/06/10 20:17:44;;;;;;;1.17;1.08;;;20.00;99.90;;;;;;4849564;29;20030;-94
2021/06/10 20:20:12;;;;;;;1.63;1.10;;;19.90;99.90;;;;;;4848805;29;20024;-94
2021/06/10 20:22:38;;;;;;;1.55;1.17;;;19.90;99.90;;;;;;4846972;29;20089;-93
2021/06/10 20:25:06;;;;;;;2.70;1.23;;;19.80;99.90;;;;;;4864619;29;20100;-94
2021/06/10 20:32:43;;;;;;;1.20;1.10;;;19.70;99.90;;;;;;4866595;29;20037;-92
2021/06/10 20:35:10;;;;;;;2.05;1.30;;;19.70;99.90;;;;;;4850957;29;20035;-95
2021/06/10 20:37:37;;;;;;;1.95;1.17;;;19.60;99.90;;;;;;4857211;29;20025;-93
2021/06/10 20:40:08;;;;;;;1.20;1.10;;;19.60;99.90;;;;;;4842114;29;20026;-95
2021/06/10 20:42:35;;;;;;;1.92;1.33;;;19.50;99.90;;;;;;4853529;29;20040;-94
2021/06/10 20:45:01;;;;;;;3.75;1.20;;;19.50;99.90;;;;;;4856593;29;20079;-94
2021/06/10 20:47:27;;;;;;;3.17;1.00;;;19.40;99.90;;;;;;4851025;29;20076;-95
2021/06/10 20:49:56;;;;;;;1.40;1.30;;;19.40;99.90;;;;;;4851423;29;20532;-95